Harbor City, California
Current Conditions -  °F | °C
As of 4:12 AM on Monday 22 Dec 2014 (Local Time) from KLGB Reporting Station
Haze Haze  
Wind Chill: 51°   Ceiling: Unl
Heat Index: 51°   Visibility: 3mi
Dew Point: 49°   Wind: 0mph
Humidity: 92%   Direction: NA
Pressure: 30.03"   Gusts: NA
Location:  33.79°N, 118.3°W
Report Text: KLGB 221212Z AUTO 00000KT 3SM BR FEW011 11/09 A3003 RMK AO2 T01060094 TSNO
Loading
Personal Weather Stations






























Interactive Weather Map New forecast layout! Learn more

10-Day Weather Forecast

Advertisements
Track Severe Weather on mobile